All Spectrum Aviation - Van Nuys Airport - KVNY

HOME

Condor Squadron KVNY Webcam

Visit our Electronics Store

Condor Squadron Webcam - Van Nuys Airport - KVNY
Picture taken: Wed, 20 Mar 2019 15:04:21 -0700
YouTube Channel!    Latest Timelapse Movie    Full Size Image    Regular Size Image    

2019/03/20 21:51 KVNY 202151Z 07008KT 10SM R16R/5500VP6000FT -TSRA FEW041 BKN070 BKN080 13/09 A3000 RMK AO2 WSHFT 2052 LTG DSNT SE SLP155 P0000 T01330089

HOME

Condor Squadron KVNY Webcam

Visit our Electronics Store